sensor_id;sensor_type;location;lat;lon;timestamp;P1;durP1;ratioP1;P2;durP2;ratioP2
66669;SDS011;53568;52.164;4.472;2023-03-23T00:01:23;5.31;;;5.30;;
66669;SDS011;53568;52.164;4.472;2023-03-23T00:03:52;5.21;;;5.20;;
66669;SDS011;53568;52.164;4.472;2023-03-23T00:06:22;4.85;;;4.85;;
66669;SDS011;53568;52.164;4.472;2023-03-23T00:08:50;4.97;;;4.97;;
66669;SDS011;53568;52.164;4.472;2023-03-23T00:11:23;4.86;;;4.86;;
66669;SDS011;53568;52.164;4.472;2023-03-23T00:13:51;4.66;;;4.63;;
66669;SDS011;53568;52.164;4.472;2023-03-23T00:16:21;4.50;;;4.49;;
66669;SDS011;53568;52.164;4.472;2023-03-23T00:18:56;4.61;;;4.61;;
66669;SDS011;53568;52.164;4.472;2023-03-23T00:21:25;4.20;;;4.20;;
66669;SDS011;53568;52.164;4.472;2023-03-23T00:24:10;4.44;;;4.44;;
66669;SDS011;53568;52.164;4.472;2023-03-23T00:26:41;4.20;;;4.20;;
66669;SDS011;53568;52.164;4.472;2023-03-23T00:29:42;4.24;;;4.24;;
66669;SDS011;53568;52.164;4.472;2023-03-23T00:32:01;4.03;;;4.03;;
66669;SDS011;53568;52.164;4.472;2023-03-23T00:34:27;4.30;;;4.30;;
66669;SDS011;53568;52.164;4.472;2023-03-23T00:36:57;4.11;;;4.10;;
66669;SDS011;53568;52.164;4.472;2023-03-23T00:39:24;4.09;;;4.08;;
66669;SDS011;53568;52.164;4.472;2023-03-23T00:41:52;4.06;;;4.06;;
66669;SDS011;53568;52.164;4.472;2023-03-23T00:44:19;3.87;;;3.87;;
66669;SDS011;53568;52.164;4.472;2023-03-23T00:46:48;3.68;;;3.68;;
66669;SDS011;53568;52.164;4.472;2023-03-23T00:49:18;3.91;;;3.91;;
66669;SDS011;53568;52.164;4.472;2023-03-23T00:51:50;3.69;;;3.69;;
66669;SDS011;53568;52.164;4.472;2023-03-23T00:54:19;3.67;;;3.67;;
66669;SDS011;53568;52.164;4.472;2023-03-23T00:56:46;3.82;;;3.82;;
66669;SDS011;53568;52.164;4.472;2023-03-23T00:59:11;3.42;;;3.42;;
66669;SDS011;53568;52.164;4.472;2023-03-23T01:01:38;3.46;;;3.46;;
66669;SDS011;53568;52.164;4.472;2023-03-23T01:04:04;3.47;;;3.47;;
66669;SDS011;53568;52.164;4.472;2023-03-23T01:06:31;3.30;;;3.30;;
66669;SDS011;53568;52.164;4.472;2023-03-23T01:09:00;3.27;;;3.27;;
66669;SDS011;53568;52.164;4.472;2023-03-23T01:11:28;3.39;;;3.39;;
66669;SDS011;53568;52.164;4.472;2023-03-23T01:13:54;3.38;;;3.38;;
66669;SDS011;53568;52.164;4.472;2023-03-23T01:16:20;3.12;;;3.12;;
66669;SDS011;53568;52.164;4.472;2023-03-23T01:18:46;3.44;;;3.43;;
66669;SDS011;53568;52.164;4.472;2023-03-23T01:21:13;3.82;;;3.80;;
66669;SDS011;53568;52.164;4.472;2023-03-23T01:23:41;3.60;;;3.59;;
66669;SDS011;53568;52.164;4.472;2023-03-23T01:26:09;3.60;;;3.59;;
66669;SDS011;53568;52.164;4.472;2023-03-23T01:28:39;3.32;;;3.32;;
66669;SDS011;53568;52.164;4.472;2023-03-23T01:31:07;3.32;;;3.32;;
66669;SDS011;53568;52.164;4.472;2023-03-23T01:33:37;3.35;;;3.35;;
66669;SDS011;53568;52.164;4.472;2023-03-23T01:36:06;3.31;;;3.31;;
66669;SDS011;53568;52.164;4.472;2023-03-23T01:38:35;3.21;;;3.21;;
66669;SDS011;53568;52.164;4.472;2023-03-23T01:41:01;3.39;;;3.39;;
66669;SDS011;53568;52.164;4.472;2023-03-23T01:43:27;3.41;;;3.41;;
66669;SDS011;53568;52.164;4.472;2023-03-23T01:45:53;3.09;;;3.09;;
66669;SDS011;53568;52.164;4.472;2023-03-23T01:48:23;3.03;;;3.03;;
66669;SDS011;53568;52.164;4.472;2023-03-23T01:51:09;3.39;;;3.39;;
66669;SDS011;53568;52.164;4.472;2023-03-23T01:54:02;3.19;;;3.19;;
66669;SDS011;53568;52.164;4.472;2023-03-23T01:56:29;3.14;;;3.14;;
66669;SDS011;53568;52.164;4.472;2023-03-23T01:59:06;3.15;;;3.15;;
66669;SDS011;53568;52.164;4.472;2023-03-23T02:01:34;3.10;;;3.10;;
66669;SDS011;53568;52.164;4.472;2023-03-23T02:04:03;3.19;;;3.19;;
66669;SDS011;53568;52.164;4.472;2023-03-23T02:06:30;2.92;;;2.92;;
66669;SDS011;53568;52.164;4.472;2023-03-23T02:08:56;3.04;;;3.04;;
66669;SDS011;53568;52.164;4.472;2023-03-23T02:11:22;3.28;;;3.28;;
66669;SDS011;53568;52.164;4.472;2023-03-23T02:13:48;3.05;;;3.05;;
66669;SDS011;53568;52.164;4.472;2023-03-23T02:19:12;3.24;;;3.23;;
66669;SDS011;53568;52.164;4.472;2023-03-23T02:22:22;3.11;;;3.10;;
66669;SDS011;53568;52.164;4.472;2023-03-23T02:24:53;3.06;;;3.06;;
66669;SDS011;53568;52.164;4.472;2023-03-23T02:35:18;3.02;;;3.02;;
66669;SDS011;53568;52.164;4.472;2023-03-23T02:38:01;3.24;;;3.24;;
66669;SDS011;53568;52.164;4.472;2023-03-23T02:40:41;3.15;;;3.15;;
66669;SDS011;53568;52.164;4.472;2023-03-23T02:43:14;3.04;;;3.04;;
66669;SDS011;53568;52.164;4.472;2023-03-23T02:45:44;3.06;;;3.06;;
66669;SDS011;53568;52.164;4.472;2023-03-23T02:48:11;3.10;;;3.10;;
66669;SDS011;53568;52.164;4.472;2023-03-23T02:50:42;2.90;;;2.90;;
66669;SDS011;53568;52.164;4.472;2023-03-23T02:53:13;2.92;;;2.92;;
66669;SDS011;53568;52.164;4.472;2023-03-23T02:55:45;2.74;;;2.74;;
66669;SDS011;53568;52.164;4.472;2023-03-23T02:58:13;2.77;;;2.77;;
66669;SDS011;53568;52.164;4.472;2023-03-23T03:00:39;2.84;;;2.84;;
66669;SDS011;53568;52.164;4.472;2023-03-23T03:03:09;2.94;;;2.93;;
66669;SDS011;53568;52.164;4.472;2023-03-23T03:11:16;3.04;;;2.91;;
66669;SDS011;53568;52.164;4.472;2023-03-23T03:13:59;3.15;;;3.03;;
66669;SDS011;53568;52.164;4.472;2023-03-23T03:16:37;2.87;;;2.82;;
66669;SDS011;53568;52.164;4.472;2023-03-23T03:21:54;3.49;;;3.35;;
66669;SDS011;53568;52.164;4.472;2023-03-23T03:24:24;3.42;;;3.25;;
66669;SDS011;53568;52.164;4.472;2023-03-23T03:26:54;3.30;;;3.05;;
66669;SDS011;53568;52.164;4.472;2023-03-23T03:29:32;3.89;;;3.47;;
66669;SDS011;53568;52.164;4.472;2023-03-23T03:32:00;3.65;;;3.18;;
66669;SDS011;53568;52.164;4.472;2023-03-23T03:34:31;3.72;;;3.17;;
66669;SDS011;53568;52.164;4.472;2023-03-23T03:36:59;3.86;;;3.20;;
66669;SDS011;53568;52.164;4.472;2023-03-23T03:39:25;4.13;;;3.37;;
66669;SDS011;53568;52.164;4.472;2023-03-23T03:41:52;3.99;;;3.35;;
66669;SDS011;53568;52.164;4.472;2023-03-23T03:44:19;4.04;;;3.48;;
66669;SDS011;53568;52.164;4.472;2023-03-23T03:46:44;3.71;;;3.20;;
66669;SDS011;53568;52.164;4.472;2023-03-23T03:49:10;3.65;;;3.18;;
66669;SDS011;53568;52.164;4.472;2023-03-23T03:51:40;3.79;;;3.25;;
66669;SDS011;53568;52.164;4.472;2023-03-23T03:54:06;3.68;;;3.20;;
66669;SDS011;53568;52.164;4.472;2023-03-23T03:56:32;3.83;;;3.42;;
66669;SDS011;53568;52.164;4.472;2023-03-23T03:59:01;3.60;;;3.35;;
66669;SDS011;53568;52.164;4.472;2023-03-23T04:01:27;3.45;;;3.25;;
66669;SDS011;53568;52.164;4.472;2023-03-23T04:03:53;3.34;;;3.11;;
66669;SDS011;53568;52.164;4.472;2023-03-23T04:06:20;3.48;;;3.30;;
66669;SDS011;53568;52.164;4.472;2023-03-23T04:08:46;3.42;;;3.25;;
66669;SDS011;53568;52.164;4.472;2023-03-23T04:11:13;3.49;;;3.27;;
66669;SDS011;53568;52.164;4.472;2023-03-23T04:13:40;3.46;;;3.20;;
66669;SDS011;53568;52.164;4.472;2023-03-23T04:16:06;3.96;;;3.57;;
66669;SDS011;53568;52.164;4.472;2023-03-23T04:18:33;4.02;;;3.52;;
66669;SDS011;53568;52.164;4.472;2023-03-23T04:21:00;4.25;;;3.66;;
66669;SDS011;53568;52.164;4.472;2023-03-23T04:23:27;4.69;;;3.94;;
66669;SDS011;53568;52.164;4.472;2023-03-23T04:25:55;5.66;;;4.42;;
66669;SDS011;53568;52.164;4.472;2023-03-23T04:28:23;5.56;;;4.27;;
66669;SDS011;53568;52.164;4.472;2023-03-23T04:30:50;5.31;;;4.14;;
66669;SDS011;53568;52.164;4.472;2023-03-23T04:33:21;5.90;;;4.48;;
66669;SDS011;53568;52.164;4.472;2023-03-23T04:35:50;6.20;;;4.72;;
66669;SDS011;53568;52.164;4.472;2023-03-23T04:38:18;6.41;;;4.84;;
66669;SDS011;53568;52.164;4.472;2023-03-23T04:40:49;7.08;;;5.19;;
66669;SDS011;53568;52.164;4.472;2023-03-23T04:43:17;6.49;;;4.68;;
66669;SDS011;53568;52.164;4.472;2023-03-23T04:45:46;7.51;;;5.23;;
66669;SDS011;53568;52.164;4.472;2023-03-23T04:48:21;8.57;;;5.88;;
66669;SDS011;53568;52.164;4.472;2023-03-23T04:50:51;8.25;;;5.72;;
66669;SDS011;53568;52.164;4.472;2023-03-23T04:53:17;8.39;;;5.83;;
66669;SDS011;53568;52.164;4.472;2023-03-23T04:55:43;7.29;;;5.29;;
66669;SDS011;53568;52.164;4.472;2023-03-23T04:58:09;8.34;;;5.89;;
66669;SDS011;53568;52.164;4.472;2023-03-23T05:00:37;7.84;;;5.50;;
66669;SDS011;53568;52.164;4.472;2023-03-23T05:03:03;8.17;;;5.75;;
66669;SDS011;53568;52.164;4.472;2023-03-23T05:05:29;8.82;;;6.04;;
66669;SDS011;53568;52.164;4.472;2023-03-23T05:07:55;9.72;;;6.52;;
66669;SDS011;53568;52.164;4.472;2023-03-23T05:10:21;9.24;;;6.22;;
66669;SDS011;53568;52.164;4.472;2023-03-23T05:12:47;9.59;;;6.51;;
66669;SDS011;53568;52.164;4.472;2023-03-23T05:15:14;9.67;;;6.55;;
66669;SDS011;53568;52.164;4.472;2023-03-23T05:17:41;10.39;;;6.91;;
66669;SDS011;53568;52.164;4.472;2023-03-23T05:20:14;10.89;;;7.14;;
66669;SDS011;53568;52.164;4.472;2023-03-23T05:22:45;10.79;;;7.07;;
66669;SDS011;53568;52.164;4.472;2023-03-23T05:25:15;10.61;;;6.99;;
66669;SDS011;53568;52.164;4.472;2023-03-23T05:27:46;10.22;;;6.76;;
66669;SDS011;53568;52.164;4.472;2023-03-23T05:30:17;10.88;;;7.20;;
66669;SDS011;53568;52.164;4.472;2023-03-23T05:32:43;10.73;;;7.06;;
66669;SDS011;53568;52.164;4.472;2023-03-23T05:35:10;11.05;;;7.16;;
66669;SDS011;53568;52.164;4.472;2023-03-23T05:37:37;12.18;;;7.90;;
66669;SDS011;53568;52.164;4.472;2023-03-23T05:40:04;11.76;;;7.64;;
66669;SDS011;53568;52.164;4.472;2023-03-23T05:42:34;12.20;;;7.96;;
66669;SDS011;53568;52.164;4.472;2023-03-23T05:45:02;11.53;;;7.66;;
66669;SDS011;53568;52.164;4.472;2023-03-23T05:47:28;12.42;;;8.08;;
66669;SDS011;53568;52.164;4.472;2023-03-23T05:49:55;12.62;;;8.08;;
66669;SDS011;53568;52.164;4.472;2023-03-23T05:52:22;12.38;;;7.97;;
66669;SDS011;53568;52.164;4.472;2023-03-23T05:54:49;12.77;;;8.23;;
66669;SDS011;53568;52.164;4.472;2023-03-23T05:57:14;14.00;;;8.94;;
66669;SDS011;53568;52.164;4.472;2023-03-23T05:59:40;13.70;;;8.86;;
66669;SDS011;53568;52.164;4.472;2023-03-23T06:02:06;13.54;;;8.89;;
66669;SDS011;53568;52.164;4.472;2023-03-23T06:04:31;13.57;;;8.82;;
66669;SDS011;53568;52.164;4.472;2023-03-23T06:06:59;12.68;;;8.30;;
66669;SDS011;53568;52.164;4.472;2023-03-23T06:09:26;13.40;;;8.72;;
66669;SDS011;53568;52.164;4.472;2023-03-23T06:11:51;13.25;;;8.68;;
66669;SDS011;53568;52.164;4.472;2023-03-23T06:14:17;13.77;;;8.95;;
66669;SDS011;53568;52.164;4.472;2023-03-23T06:16:43;14.12;;;9.04;;
66669;SDS011;53568;52.164;4.472;2023-03-23T06:19:08;14.34;;;9.29;;
66669;SDS011;53568;52.164;4.472;2023-03-23T06:21:34;15.33;;;9.69;;
66669;SDS011;53568;52.164;4.472;2023-03-23T06:24:00;15.19;;;9.59;;
66669;SDS011;53568;52.164;4.472;2023-03-23T06:26:27;14.59;;;9.21;;
66669;SDS011;53568;52.164;4.472;2023-03-23T06:28:57;12.72;;;8.30;;
66669;SDS011;53568;52.164;4.472;2023-03-23T06:31:23;12.53;;;8.23;;
66669;SDS011;53568;52.164;4.472;2023-03-23T06:33:51;13.55;;;8.88;;
66669;SDS011;53568;52.164;4.472;2023-03-23T06:36:17;12.33;;;8.09;;
66669;SDS011;53568;52.164;4.472;2023-03-23T06:38:42;12.42;;;8.11;;
66669;SDS011;53568;52.164;4.472;2023-03-23T06:41:08;11.63;;;7.64;;
66669;SDS011;53568;52.164;4.472;2023-03-23T06:43:34;13.43;;;8.51;;
66669;SDS011;53568;52.164;4.472;2023-03-23T06:46:03;13.51;;;8.62;;
66669;SDS011;53568;52.164;4.472;2023-03-23T06:48:28;13.82;;;8.87;;
66669;SDS011;53568;52.164;4.472;2023-03-23T06:50:54;12.95;;;8.28;;
66669;SDS011;53568;52.164;4.472;2023-03-23T06:53:20;13.09;;;8.35;;
66669;SDS011;53568;52.164;4.472;2023-03-23T06:55:46;13.28;;;8.47;;
66669;SDS011;53568;52.164;4.472;2023-03-23T06:58:12;13.69;;;8.66;;
66669;SDS011;53568;52.164;4.472;2023-03-23T07:00:38;13.77;;;8.80;;
66669;SDS011;53568;52.164;4.472;2023-03-23T07:03:05;12.40;;;8.05;;
66669;SDS011;53568;52.164;4.472;2023-03-23T07:05:35;12.00;;;7.86;;
66669;SDS011;53568;52.164;4.472;2023-03-23T07:08:02;11.97;;;7.73;;
66669;SDS011;53568;52.164;4.472;2023-03-23T07:10:28;11.89;;;7.60;;
66669;SDS011;53568;52.164;4.472;2023-03-23T07:12:54;9.75;;;6.34;;
66669;SDS011;53568;52.164;4.472;2023-03-23T07:15:20;10.40;;;6.89;;
66669;SDS011;53568;52.164;4.472;2023-03-23T07:17:46;11.71;;;7.62;;
66669;SDS011;53568;52.164;4.472;2023-03-23T07:20:13;12.42;;;7.98;;
66669;SDS011;53568;52.164;4.472;2023-03-23T07:22:39;12.57;;;8.02;;
66669;SDS011;53568;52.164;4.472;2023-03-23T07:25:05;13.01;;;8.33;;
66669;SDS011;53568;52.164;4.472;2023-03-23T07:27:31;11.52;;;7.58;;
66669;SDS011;53568;52.164;4.472;2023-03-23T07:29:56;10.44;;;6.88;;
66669;SDS011;53568;52.164;4.472;2023-03-23T07:32:23;12.48;;;7.99;;
66669;SDS011;53568;52.164;4.472;2023-03-23T07:34:49;11.68;;;7.44;;
66669;SDS011;53568;52.164;4.472;2023-03-23T07:37:14;11.64;;;7.44;;
66669;SDS011;53568;52.164;4.472;2023-03-23T07:39:41;10.80;;;6.89;;
66669;SDS011;53568;52.164;4.472;2023-03-23T07:42:07;9.98;;;6.48;;
66669;SDS011;53568;52.164;4.472;2023-03-23T07:44:33;8.96;;;5.90;;
66669;SDS011;53568;52.164;4.472;2023-03-23T07:46:59;9.07;;;6.03;;
66669;SDS011;53568;52.164;4.472;2023-03-23T07:49:24;9.66;;;6.31;;
66669;SDS011;53568;52.164;4.472;2023-03-23T07:51:51;9.08;;;5.93;;
66669;SDS011;53568;52.164;4.472;2023-03-23T07:54:17;9.06;;;6.00;;
66669;SDS011;53568;52.164;4.472;2023-03-23T07:56:42;9.28;;;6.19;;
66669;SDS011;53568;52.164;4.472;2023-03-23T07:59:10;8.89;;;6.00;;
66669;SDS011;53568;52.164;4.472;2023-03-23T08:01:36;8.50;;;5.89;;
66669;SDS011;53568;52.164;4.472;2023-03-23T08:04:01;9.05;;;6.11;;
66669;SDS011;53568;52.164;4.472;2023-03-23T08:06:27;9.25;;;6.17;;
66669;SDS011;53568;52.164;4.472;2023-03-23T08:08:53;8.62;;;5.69;;
66669;SDS011;53568;52.164;4.472;2023-03-23T08:11:19;8.89;;;5.86;;
66669;SDS011;53568;52.164;4.472;2023-03-23T08:13:45;9.17;;;5.91;;
66669;SDS011;53568;52.164;4.472;2023-03-23T08:16:11;8.59;;;5.66;;
66669;SDS011;53568;52.164;4.472;2023-03-23T08:18:36;9.58;;;6.34;;
66669;SDS011;53568;52.164;4.472;2023-03-23T08:21:04;9.29;;;6.06;;
66669;SDS011;53568;52.164;4.472;2023-03-23T08:23:33;8.97;;;5.89;;
66669;SDS011;53568;52.164;4.472;2023-03-23T08:26:02;8.83;;;5.95;;
66669;SDS011;53568;52.164;4.472;2023-03-23T08:28:29;7.98;;;5.49;;
66669;SDS011;53568;52.164;4.472;2023-03-23T08:30:55;8.58;;;5.80;;
66669;SDS011;53568;52.164;4.472;2023-03-23T08:33:20;9.77;;;6.50;;
66669;SDS011;53568;52.164;4.472;2023-03-23T08:35:53;9.07;;;6.04;;
66669;SDS011;53568;52.164;4.472;2023-03-23T08:38:21;9.56;;;6.27;;
66669;SDS011;53568;52.164;4.472;2023-03-23T08:40:47;9.52;;;6.23;;
66669;SDS011;53568;52.164;4.472;2023-03-23T08:43:13;9.54;;;6.29;;
66669;SDS011;53568;52.164;4.472;2023-03-23T08:45:38;10.92;;;7.09;;
66669;SDS011;53568;52.164;4.472;2023-03-23T08:48:04;11.62;;;7.44;;
66669;SDS011;53568;52.164;4.472;2023-03-23T08:50:32;10.90;;;6.91;;
66669;SDS011;53568;52.164;4.472;2023-03-23T08:52:59;11.66;;;7.50;;
66669;SDS011;53568;52.164;4.472;2023-03-23T08:55:25;11.42;;;7.41;;
66669;SDS011;53568;52.164;4.472;2023-03-23T08:57:51;11.55;;;7.36;;
66669;SDS011;53568;52.164;4.472;2023-03-23T09:00:18;11.02;;;7.14;;
66669;SDS011;53568;52.164;4.472;2023-03-23T09:02:47;11.52;;;7.43;;
66669;SDS011;53568;52.164;4.472;2023-03-23T09:05:15;11.45;;;7.30;;
66669;SDS011;53568;52.164;4.472;2023-03-23T09:07:44;11.32;;;7.25;;
66669;SDS011;53568;52.164;4.472;2023-03-23T09:10:13;11.14;;;7.07;;
66669;SDS011;53568;52.164;4.472;2023-03-23T09:12:40;10.39;;;6.65;;
66669;SDS011;53568;52.164;4.472;2023-03-23T09:15:07;10.26;;;6.59;;
66669;SDS011;53568;52.164;4.472;2023-03-23T09:17:36;11.13;;;7.22;;
66669;SDS011;53568;52.164;4.472;2023-03-23T09:20:05;10.91;;;7.01;;
66669;SDS011;53568;52.164;4.472;2023-03-23T09:22:36;12.54;;;7.77;;
66669;SDS011;53568;52.164;4.472;2023-03-23T09:25:04;12.32;;;7.65;;
66669;SDS011;53568;52.164;4.472;2023-03-23T09:27:29;11.55;;;7.22;;
66669;SDS011;53568;52.164;4.472;2023-03-23T09:29:55;12.92;;;7.94;;
66669;SDS011;53568;52.164;4.472;2023-03-23T09:32:21;10.94;;;6.92;;
66669;SDS011;53568;52.164;4.472;2023-03-23T09:34:47;11.73;;;7.40;;
66669;SDS011;53568;52.164;4.472;2023-03-23T09:37:13;12.03;;;7.66;;
66669;SDS011;53568;52.164;4.472;2023-03-23T09:39:41;12.38;;;7.92;;
66669;SDS011;53568;52.164;4.472;2023-03-23T09:45:03;12.06;;;7.59;;
66669;SDS011;53568;52.164;4.472;2023-03-23T09:50:19;11.92;;;7.46;;
66669;SDS011;53568;52.164;4.472;2023-03-23T09:52:55;12.69;;;7.92;;
66669;SDS011;53568;52.164;4.472;2023-03-23T09:55:23;12.18;;;7.76;;
66669;SDS011;53568;52.164;4.472;2023-03-23T09:58:01;12.03;;;7.69;;
66669;SDS011;53568;52.164;4.472;2023-03-23T10:01:31;12.06;;;7.66;;
66669;SDS011;53568;52.164;4.472;2023-03-23T10:03:40;12.02;;;7.67;;
66669;SDS011;53568;52.164;4.472;2023-03-23T10:06:11;11.89;;;7.52;;
66669;SDS011;53568;52.164;4.472;2023-03-23T10:08:48;12.26;;;7.74;;
66669;SDS011;53568;52.164;4.472;2023-03-23T10:16:34;12.71;;;7.97;;
66669;SDS011;53568;52.164;4.472;2023-03-23T10:19:12;13.37;;;8.34;;
66669;SDS011;53568;52.164;4.472;2023-03-23T10:21:50;14.74;;;9.02;;
66669;SDS011;53568;52.164;4.472;2023-03-23T10:24:26;12.14;;;7.75;;
66669;SDS011;53568;52.164;4.472;2023-03-23T10:30:01;11.90;;;7.75;;
66669;SDS011;53568;52.164;4.472;2023-03-23T10:35:36;13.57;;;8.57;;
66669;SDS011;53568;52.164;4.472;2023-03-23T10:38:19;14.19;;;8.78;;
66669;SDS011;53568;52.164;4.472;2023-03-23T10:40:55;12.82;;;8.08;;
66669;SDS011;53568;52.164;4.472;2023-03-23T10:43:26;14.10;;;8.85;;
66669;SDS011;53568;52.164;4.472;2023-03-23T10:45:55;12.58;;;8.02;;
66669;SDS011;53568;52.164;4.472;2023-03-23T10:48:32;15.23;;;9.42;;
66669;SDS011;53568;52.164;4.472;2023-03-23T10:51:03;15.20;;;9.29;;
66669;SDS011;53568;52.164;4.472;2023-03-23T10:53:44;14.64;;;9.08;;
66669;SDS011;53568;52.164;4.472;2023-03-23T10:56:25;14.94;;;9.25;;
66669;SDS011;53568;52.164;4.472;2023-03-23T10:58:52;12.81;;;7.98;;
66669;SDS011;53568;52.164;4.472;2023-03-23T11:01:27;13.69;;;8.46;;
66669;SDS011;53568;52.164;4.472;2023-03-23T11:03:57;13.35;;;8.30;;
66669;SDS011;53568;52.164;4.472;2023-03-23T11:06:29;13.17;;;8.22;;
66669;SDS011;53568;52.164;4.472;2023-03-23T11:09:12;13.46;;;8.38;;
66669;SDS011;53568;52.164;4.472;2023-03-23T11:11:48;12.92;;;8.16;;
66669;SDS011;53568;52.164;4.472;2023-03-23T11:17:04;12.50;;;7.90;;
66669;SDS011;53568;52.164;4.472;2023-03-23T11:19:45;11.85;;;7.54;;
66669;SDS011;53568;52.164;4.472;2023-03-23T11:22:16;11.28;;;7.34;;
66669;SDS011;53568;52.164;4.472;2023-03-23T11:24:56;10.01;;;6.60;;
66669;SDS011;53568;52.164;4.472;2023-03-23T11:27:26;10.93;;;7.14;;
66669;SDS011;53568;52.164;4.472;2023-03-23T11:29:55;10.34;;;6.76;;
66669;SDS011;53568;52.164;4.472;2023-03-23T11:32:27;10.92;;;7.18;;
66669;SDS011;53568;52.164;4.472;2023-03-23T11:35:37;10.24;;;6.83;;
66669;SDS011;53568;52.164;4.472;2023-03-23T11:37:54;9.75;;;6.59;;
66669;SDS011;53568;52.164;4.472;2023-03-23T11:40:26;9.03;;;6.41;;
66669;SDS011;53568;52.164;4.472;2023-03-23T11:42:59;8.80;;;6.14;;
66669;SDS011;53568;52.164;4.472;2023-03-23T11:45:38;7.97;;;5.49;;
66669;SDS011;53568;52.164;4.472;2023-03-23T11:48:12;7.62;;;5.16;;
66669;SDS011;53568;52.164;4.472;2023-03-23T11:50:50;8.00;;;5.45;;
66669;SDS011;53568;52.164;4.472;2023-03-23T11:58:26;7.63;;;5.37;;
66669;SDS011;53568;52.164;4.472;2023-03-23T12:03:23;7.99;;;5.67;;
66669;SDS011;53568;52.164;4.472;2023-03-23T12:06:31;7.84;;;5.41;;
66669;SDS011;53568;52.164;4.472;2023-03-23T12:12:05;8.34;;;5.59;;
66669;SDS011;53568;52.164;4.472;2023-03-23T12:17:40;8.37;;;5.73;;
66669;SDS011;53568;52.164;4.472;2023-03-23T12:34:05;8.46;;;5.69;;
66669;SDS011;53568;52.164;4.472;2023-03-23T12:36:53;8.04;;;5.42;;
66669;SDS011;53568;52.164;4.472;2023-03-23T12:44:48;8.08;;;5.76;;
66669;SDS011;53568;52.164;4.472;2023-03-23T12:52:45;7.37;;;5.53;;
66669;SDS011;53568;52.164;4.472;2023-03-23T12:58:19;7.52;;;5.34;;
66669;SDS011;53568;52.164;4.472;2023-03-23T13:01:05;8.57;;;5.75;;
66669;SDS011;53568;52.164;4.472;2023-03-23T13:03:57;8.37;;;5.55;;
66669;SDS011;53568;52.164;4.472;2023-03-23T13:06:32;7.93;;;5.25;;
66669;SDS011;53568;52.164;4.472;2023-03-23T13:09:14;8.30;;;5.38;;
66669;SDS011;53568;52.164;4.472;2023-03-23T13:12:01;8.36;;;5.42;;
66669;SDS011;53568;52.164;4.472;2023-03-23T13:25:01;11.84;;;7.40;;
66669;SDS011;53568;52.164;4.472;2023-03-23T13:27:34;12.05;;;7.51;;
66669;SDS011;53568;52.164;4.472;2023-03-23T13:30:00;12.33;;;7.71;;
66669;SDS011;53568;52.164;4.472;2023-03-23T13:32:35;12.67;;;7.76;;
66669;SDS011;53568;52.164;4.472;2023-03-23T13:35:03;12.10;;;7.53;;
66669;SDS011;53568;52.164;4.472;2023-03-23T13:37:40;12.43;;;7.86;;
66669;SDS011;53568;52.164;4.472;2023-03-23T13:42:46;11.28;;;7.01;;
66669;SDS011;53568;52.164;4.472;2023-03-23T13:47:46;11.58;;;7.23;;
66669;SDS011;53568;52.164;4.472;2023-03-23T13:55:19;9.26;;;6.09;;
66669;SDS011;53568;52.164;4.472;2023-03-23T14:00:25;9.29;;;6.07;;
66669;SDS011;53568;52.164;4.472;2023-03-23T14:02:58;9.28;;;6.10;;
66669;SDS011;53568;52.164;4.472;2023-03-23T14:08:36;9.45;;;6.13;;
66669;SDS011;53568;52.164;4.472;2023-03-23T14:10:54;8.88;;;5.74;;
66669;SDS011;53568;52.164;4.472;2023-03-23T14:16:20;10.54;;;6.65;;
66669;SDS011;53568;52.164;4.472;2023-03-23T14:18:55;8.86;;;5.73;;
66669;SDS011;53568;52.164;4.472;2023-03-23T14:22:15;10.07;;;6.46;;
66669;SDS011;53568;52.164;4.472;2023-03-23T14:24:24;10.46;;;6.67;;
66669;SDS011;53568;52.164;4.472;2023-03-23T14:26:54;9.55;;;6.16;;
66669;SDS011;53568;52.164;4.472;2023-03-23T14:29:37;9.60;;;6.25;;
66669;SDS011;53568;52.164;4.472;2023-03-23T14:32:04;10.34;;;6.63;;
66669;SDS011;53568;52.164;4.472;2023-03-23T14:34:33;10.49;;;6.74;;
66669;SDS011;53568;52.164;4.472;2023-03-23T14:37:00;9.62;;;6.19;;
66669;SDS011;53568;52.164;4.472;2023-03-23T14:39:28;10.83;;;6.92;;
66669;SDS011;53568;52.164;4.472;2023-03-23T14:42:04;10.85;;;7.00;;
66669;SDS011;53568;52.164;4.472;2023-03-23T14:44:34;10.12;;;6.55;;
66669;SDS011;53568;52.164;4.472;2023-03-23T14:47:06;10.79;;;6.96;;
66669;SDS011;53568;52.164;4.472;2023-03-23T14:49:44;9.49;;;6.27;;
66669;SDS011;53568;52.164;4.472;2023-03-23T14:52:11;11.35;;;7.31;;
66669;SDS011;53568;52.164;4.472;2023-03-23T14:54:39;12.04;;;7.67;;
66669;SDS011;53568;52.164;4.472;2023-03-23T14:57:11;12.60;;;7.94;;
66669;SDS011;53568;52.164;4.472;2023-03-23T14:59:41;11.04;;;7.02;;
66669;SDS011;53568;52.164;4.472;2023-03-23T15:05:00;10.38;;;6.84;;
66669;SDS011;53568;52.164;4.472;2023-03-23T15:07:35;10.89;;;7.01;;
66669;SDS011;53568;52.164;4.472;2023-03-23T15:10:08;12.18;;;7.75;;
66669;SDS011;53568;52.164;4.472;2023-03-23T15:12:39;12.92;;;8.26;;
66669;SDS011;53568;52.164;4.472;2023-03-23T15:15:24;11.96;;;7.74;;
66669;SDS011;53568;52.164;4.472;2023-03-23T15:17:53;12.59;;;8.01;;
66669;SDS011;53568;52.164;4.472;2023-03-23T15:23:17;12.48;;;7.90;;
66669;SDS011;53568;52.164;4.472;2023-03-23T15:25:52;13.08;;;8.22;;
66669;SDS011;53568;52.164;4.472;2023-03-23T15:28:20;12.83;;;8.24;;
66669;SDS011;53568;52.164;4.472;2023-03-23T15:30:54;11.59;;;7.51;;
66669;SDS011;53568;52.164;4.472;2023-03-23T15:33:25;12.68;;;8.11;;
66669;SDS011;53568;52.164;4.472;2023-03-23T15:35:53;14.60;;;9.05;;
66669;SDS011;53568;52.164;4.472;2023-03-23T15:38:24;13.04;;;8.16;;
66669;SDS011;53568;52.164;4.472;2023-03-23T15:40:55;12.50;;;8.00;;
66669;SDS011;53568;52.164;4.472;2023-03-23T15:43:24;11.64;;;7.43;;
66669;SDS011;53568;52.164;4.472;2023-03-23T15:48:18;13.22;;;8.24;;
66669;SDS011;53568;52.164;4.472;2023-03-23T15:50:43;13.10;;;8.22;;
66669;SDS011;53568;52.164;4.472;2023-03-23T15:53:55;13.47;;;8.47;;
66669;SDS011;53568;52.164;4.472;2023-03-23T15:56:03;11.92;;;7.66;;
66669;SDS011;53568;52.164;4.472;2023-03-23T15:58:31;12.13;;;7.84;;
66669;SDS011;53568;52.164;4.472;2023-03-23T16:00:57;11.82;;;7.69;;
66669;SDS011;53568;52.164;4.472;2023-03-23T16:03:27;12.63;;;8.30;;
66669;SDS011;53568;52.164;4.472;2023-03-23T16:06:01;11.81;;;7.74;;
66669;SDS011;53568;52.164;4.472;2023-03-23T16:08:27;11.86;;;7.69;;
66669;SDS011;53568;52.164;4.472;2023-03-23T16:10:53;11.49;;;7.43;;
66669;SDS011;53568;52.164;4.472;2023-03-23T16:13:19;11.02;;;7.16;;
66669;SDS011;53568;52.164;4.472;2023-03-23T16:15:45;11.70;;;7.55;;
66669;SDS011;53568;52.164;4.472;2023-03-23T16:18:21;12.04;;;7.73;;
66669;SDS011;53568;52.164;4.472;2023-03-23T16:20:48;11.71;;;7.68;;
66669;SDS011;53568;52.164;4.472;2023-03-23T16:23:15;10.96;;;7.15;;
66669;SDS011;53568;52.164;4.472;2023-03-23T16:25:41;13.13;;;8.54;;
66669;SDS011;53568;52.164;4.472;2023-03-23T16:28:09;17.06;;;10.87;;
66669;SDS011;53568;52.164;4.472;2023-03-23T16:30:36;15.57;;;9.71;;
66669;SDS011;53568;52.164;4.472;2023-03-23T16:33:02;13.84;;;8.85;;
66669;SDS011;53568;52.164;4.472;2023-03-23T16:35:28;12.80;;;8.35;;
66669;SDS011;53568;52.164;4.472;2023-03-23T16:37:54;12.96;;;8.28;;
66669;SDS011;53568;52.164;4.472;2023-03-23T16:40:21;14.27;;;9.14;;
66669;SDS011;53568;52.164;4.472;2023-03-23T16:42:48;13.01;;;8.39;;
66669;SDS011;53568;52.164;4.472;2023-03-23T16:45:15;13.52;;;8.57;;
66669;SDS011;53568;52.164;4.472;2023-03-23T16:47:42;13.79;;;8.68;;
66669;SDS011;53568;52.164;4.472;2023-03-23T16:50:10;13.57;;;8.76;;
66669;SDS011;53568;52.164;4.472;2023-03-23T16:52:41;12.48;;;8.11;;
66669;SDS011;53568;52.164;4.472;2023-03-23T16:55:09;13.45;;;8.70;;